sensor_id;sensor_type;location;lat;lon;timestamp;P1;durP1;ratioP1;P2;durP2;ratioP2
70406;SDS011;57821;52.202;0.154;2023-05-19T00:01:33;12.80;;;5.13;;
70406;SDS011;57821;52.202;0.154;2023-05-19T00:04:20;11.18;;;5.15;;
70406;SDS011;57821;52.202;0.154;2023-05-19T00:07:08;12.57;;;5.32;;
70406;SDS011;57821;52.202;0.154;2023-05-19T00:09:56;17.95;;;6.93;;
70406;SDS011;57821;52.202;0.154;2023-05-19T00:12:43;11.20;;;4.57;;
70406;SDS011;57821;52.202;0.154;2023-05-19T00:15:31;24.00;;;5.35;;
70406;SDS011;57821;52.202;0.154;2023-05-19T00:18:18;16.25;;;4.68;;
70406;SDS011;57821;52.202;0.154;2023-05-19T00:21:05;19.17;;;5.15;;
70406;SDS011;57821;52.202;0.154;2023-05-19T00:23:52;14.20;;;4.88;;
70406;SDS011;57821;52.202;0.154;2023-05-19T00:26:39;12.65;;;4.82;;
70406;SDS011;57821;52.202;0.154;2023-05-19T00:29:27;13.13;;;4.35;;
70406;SDS011;57821;52.202;0.154;2023-05-19T00:32:15;16.27;;;5.30;;
70406;SDS011;57821;52.202;0.154;2023-05-19T00:35:02;13.45;;;5.47;;
70406;SDS011;57821;52.202;0.154;2023-05-19T00:37:49;17.70;;;4.90;;
70406;SDS011;57821;52.202;0.154;2023-05-19T00:40:35;16.92;;;5.25;;
70406;SDS011;57821;52.202;0.154;2023-05-19T00:43:22;13.43;;;4.80;;
70406;SDS011;57821;52.202;0.154;2023-05-19T00:46:09;14.05;;;5.20;;
70406;SDS011;57821;52.202;0.154;2023-05-19T00:48:56;18.05;;;5.22;;
70406;SDS011;57821;52.202;0.154;2023-05-19T00:51:43;15.73;;;5.82;;
70406;SDS011;57821;52.202;0.154;2023-05-19T00:54:32;16.52;;;5.53;;
70406;SDS011;57821;52.202;0.154;2023-05-19T00:57:20;16.00;;;6.22;;
70406;SDS011;57821;52.202;0.154;2023-05-19T01:00:07;20.33;;;5.47;;
70406;SDS011;57821;52.202;0.154;2023-05-19T01:02:55;17.40;;;6.25;;
70406;SDS011;57821;52.202;0.154;2023-05-19T01:05:42;15.48;;;5.68;;
70406;SDS011;57821;52.202;0.154;2023-05-19T01:08:32;16.55;;;6.63;;
70406;SDS011;57821;52.202;0.154;2023-05-19T01:11:21;16.85;;;6.90;;
70406;SDS011;57821;52.202;0.154;2023-05-19T01:14:07;16.83;;;6.22;;
70406;SDS011;57821;52.202;0.154;2023-05-19T01:23:03;17.65;;;7.95;;
70406;SDS011;57821;52.202;0.154;2023-05-19T01:26:10;17.30;;;6.75;;
70406;SDS011;57821;52.202;0.154;2023-05-19T01:29:28;15.77;;;6.85;;
70406;SDS011;57821;52.202;0.154;2023-05-19T01:32:27;17.58;;;7.15;;
70406;SDS011;57821;52.202;0.154;2023-05-19T01:35:16;14.52;;;7.10;;
70406;SDS011;57821;52.202;0.154;2023-05-19T01:38:04;18.17;;;7.43;;
70406;SDS011;57821;52.202;0.154;2023-05-19T01:40:55;19.52;;;6.15;;
70406;SDS011;57821;52.202;0.154;2023-05-19T01:43:42;16.75;;;6.38;;
70406;SDS011;57821;52.202;0.154;2023-05-19T01:46:30;16.27;;;7.25;;
70406;SDS011;57821;52.202;0.154;2023-05-19T01:49:17;21.85;;;7.03;;
70406;SDS011;57821;52.202;0.154;2023-05-19T01:52:04;16.88;;;7.50;;
70406;SDS011;57821;52.202;0.154;2023-05-19T01:54:51;18.83;;;6.93;;
70406;SDS011;57821;52.202;0.154;2023-05-19T02:06:45;15.63;;;7.45;;
70406;SDS011;57821;52.202;0.154;2023-05-19T02:12:44;15.43;;;7.18;;
70406;SDS011;57821;52.202;0.154;2023-05-19T02:15:38;17.90;;;6.75;;
70406;SDS011;57821;52.202;0.154;2023-05-19T02:18:27;12.82;;;6.82;;
70406;SDS011;57821;52.202;0.154;2023-05-19T02:21:14;14.10;;;7.00;;
70406;SDS011;57821;52.202;0.154;2023-05-19T02:24:01;15.63;;;6.45;;
70406;SDS011;57821;52.202;0.154;2023-05-19T02:26:48;16.60;;;6.28;;
70406;SDS011;57821;52.202;0.154;2023-05-19T02:29:37;15.75;;;6.43;;
70406;SDS011;57821;52.202;0.154;2023-05-19T02:32:24;17.15;;;7.25;;
70406;SDS011;57821;52.202;0.154;2023-05-19T02:35:11;16.50;;;6.78;;
70406;SDS011;57821;52.202;0.154;2023-05-19T02:37:59;15.20;;;7.15;;
70406;SDS011;57821;52.202;0.154;2023-05-19T02:40:46;19.58;;;7.75;;
70406;SDS011;57821;52.202;0.154;2023-05-19T02:43:33;19.38;;;7.20;;
70406;SDS011;57821;52.202;0.154;2023-05-19T02:46:20;16.25;;;6.75;;
70406;SDS011;57821;52.202;0.154;2023-05-19T02:49:07;13.82;;;6.65;;
70406;SDS011;57821;52.202;0.154;2023-05-19T02:51:53;15.68;;;6.82;;
70406;SDS011;57821;52.202;0.154;2023-05-19T02:54:40;20.40;;;7.18;;
70406;SDS011;57821;52.202;0.154;2023-05-19T02:57:28;19.80;;;6.88;;
70406;SDS011;57821;52.202;0.154;2023-05-19T03:00:15;17.33;;;7.15;;
70406;SDS011;57821;52.202;0.154;2023-05-19T03:03:03;15.48;;;6.25;;
70406;SDS011;57821;52.202;0.154;2023-05-19T03:05:50;14.70;;;6.93;;
70406;SDS011;57821;52.202;0.154;2023-05-19T03:08:37;19.10;;;6.75;;
70406;SDS011;57821;52.202;0.154;2023-05-19T03:11:27;28.80;;;7.95;;
70406;SDS011;57821;52.202;0.154;2023-05-19T03:14:14;19.67;;;7.22;;
70406;SDS011;57821;52.202;0.154;2023-05-19T03:17:01;16.00;;;6.28;;
70406;SDS011;57821;52.202;0.154;2023-05-19T03:19:48;15.25;;;6.15;;
70406;SDS011;57821;52.202;0.154;2023-05-19T03:22:35;13.38;;;6.60;;
70406;SDS011;57821;52.202;0.154;2023-05-19T03:25:22;13.25;;;6.00;;
70406;SDS011;57821;52.202;0.154;2023-05-19T03:28:09;14.35;;;5.70;;
70406;SDS011;57821;52.202;0.154;2023-05-19T03:30:56;17.52;;;5.72;;
70406;SDS011;57821;52.202;0.154;2023-05-19T03:33:47;14.20;;;5.27;;
70406;SDS011;57821;52.202;0.154;2023-05-19T03:36:34;16.60;;;5.60;;
70406;SDS011;57821;52.202;0.154;2023-05-19T03:39:21;14.77;;;5.25;;
70406;SDS011;57821;52.202;0.154;2023-05-19T03:42:08;12.48;;;5.05;;
70406;SDS011;57821;52.202;0.154;2023-05-19T03:44:55;16.10;;;6.10;;
70406;SDS011;57821;52.202;0.154;2023-05-19T03:47:42;12.60;;;5.60;;
70406;SDS011;57821;52.202;0.154;2023-05-19T03:50:43;14.43;;;5.22;;
70406;SDS011;57821;52.202;0.154;2023-05-19T03:53:35;21.17;;;6.25;;
70406;SDS011;57821;52.202;0.154;2023-05-19T03:56:22;16.27;;;5.45;;
70406;SDS011;57821;52.202;0.154;2023-05-19T03:59:09;15.23;;;5.25;;
70406;SDS011;57821;52.202;0.154;2023-05-19T04:01:56;11.65;;;5.53;;
70406;SDS011;57821;52.202;0.154;2023-05-19T04:04:45;11.63;;;4.95;;
70406;SDS011;57821;52.202;0.154;2023-05-19T04:07:32;15.05;;;5.32;;
70406;SDS011;57821;52.202;0.154;2023-05-19T04:10:18;23.00;;;6.38;;
70406;SDS011;57821;52.202;0.154;2023-05-19T04:13:05;16.77;;;5.68;;
70406;SDS011;57821;52.202;0.154;2023-05-19T04:15:53;12.05;;;5.43;;
70406;SDS011;57821;52.202;0.154;2023-05-19T04:18:39;14.57;;;5.47;;
70406;SDS011;57821;52.202;0.154;2023-05-19T04:21:26;16.38;;;5.88;;
70406;SDS011;57821;52.202;0.154;2023-05-19T04:24:13;14.65;;;5.90;;
70406;SDS011;57821;52.202;0.154;2023-05-19T04:27:00;11.70;;;5.47;;
70406;SDS011;57821;52.202;0.154;2023-05-19T04:29:47;13.02;;;5.20;;
70406;SDS011;57821;52.202;0.154;2023-05-19T04:32:35;13.35;;;5.20;;
70406;SDS011;57821;52.202;0.154;2023-05-19T04:35:22;14.23;;;6.15;;
70406;SDS011;57821;52.202;0.154;2023-05-19T04:38:10;9.30;;;5.43;;
70406;SDS011;57821;52.202;0.154;2023-05-19T04:40:57;13.48;;;6.50;;
70406;SDS011;57821;52.202;0.154;2023-05-19T04:43:44;15.68;;;6.30;;
70406;SDS011;57821;52.202;0.154;2023-05-19T04:46:32;14.52;;;6.28;;
70406;SDS011;57821;52.202;0.154;2023-05-19T04:49:19;14.93;;;7.38;;
70406;SDS011;57821;52.202;0.154;2023-05-19T04:52:06;12.73;;;6.07;;
70406;SDS011;57821;52.202;0.154;2023-05-19T04:54:54;13.30;;;6.45;;
70406;SDS011;57821;52.202;0.154;2023-05-19T04:57:42;18.83;;;6.05;;
70406;SDS011;57821;52.202;0.154;2023-05-19T05:00:29;12.73;;;6.05;;
70406;SDS011;57821;52.202;0.154;2023-05-19T05:03:20;14.98;;;6.63;;
70406;SDS011;57821;52.202;0.154;2023-05-19T05:06:07;17.40;;;6.45;;
70406;SDS011;57821;52.202;0.154;2023-05-19T05:08:54;10.90;;;5.60;;
70406;SDS011;57821;52.202;0.154;2023-05-19T05:11:41;15.10;;;6.20;;
70406;SDS011;57821;52.202;0.154;2023-05-19T05:14:29;12.60;;;5.40;;
70406;SDS011;57821;52.202;0.154;2023-05-19T05:17:16;13.73;;;5.70;;
70406;SDS011;57821;52.202;0.154;2023-05-19T05:20:03;15.18;;;5.53;;
70406;SDS011;57821;52.202;0.154;2023-05-19T05:22:51;14.82;;;5.70;;
70406;SDS011;57821;52.202;0.154;2023-05-19T05:25:39;13.05;;;5.68;;
70406;SDS011;57821;52.202;0.154;2023-05-19T05:28:28;17.10;;;5.75;;
70406;SDS011;57821;52.202;0.154;2023-05-19T05:31:16;12.45;;;5.55;;
70406;SDS011;57821;52.202;0.154;2023-05-19T05:34:03;13.13;;;5.45;;
70406;SDS011;57821;52.202;0.154;2023-05-19T05:36:51;10.63;;;4.65;;
70406;SDS011;57821;52.202;0.154;2023-05-19T05:39:38;13.00;;;4.80;;
70406;SDS011;57821;52.202;0.154;2023-05-19T05:42:25;12.60;;;4.20;;
70406;SDS011;57821;52.202;0.154;2023-05-19T05:45:15;16.70;;;5.20;;
70406;SDS011;57821;52.202;0.154;2023-05-19T05:48:02;12.18;;;5.45;;
70406;SDS011;57821;52.202;0.154;2023-05-19T05:50:50;12.27;;;4.30;;
70406;SDS011;57821;52.202;0.154;2023-05-19T05:53:42;16.10;;;5.72;;
70406;SDS011;57821;52.202;0.154;2023-05-19T05:56:36;14.15;;;4.60;;
70406;SDS011;57821;52.202;0.154;2023-05-19T05:59:26;13.13;;;4.68;;
70406;SDS011;57821;52.202;0.154;2023-05-19T06:02:13;11.82;;;4.47;;
70406;SDS011;57821;52.202;0.154;2023-05-19T06:05:00;16.45;;;4.05;;
70406;SDS011;57821;52.202;0.154;2023-05-19T06:07:47;11.88;;;5.45;;
70406;SDS011;57821;52.202;0.154;2023-05-19T06:10:40;14.90;;;4.20;;
70406;SDS011;57821;52.202;0.154;2023-05-19T06:13:28;18.88;;;4.55;;
70406;SDS011;57821;52.202;0.154;2023-05-19T06:16:15;13.77;;;4.15;;
70406;SDS011;57821;52.202;0.154;2023-05-19T06:19:05;11.07;;;4.28;;
70406;SDS011;57821;52.202;0.154;2023-05-19T06:21:52;16.27;;;4.13;;
70406;SDS011;57821;52.202;0.154;2023-05-19T06:24:39;13.63;;;4.63;;
70406;SDS011;57821;52.202;0.154;2023-05-19T06:27:28;12.20;;;4.10;;
70406;SDS011;57821;52.202;0.154;2023-05-19T06:30:15;12.98;;;4.25;;
70406;SDS011;57821;52.202;0.154;2023-05-19T06:33:20;14.57;;;5.68;;
70406;SDS011;57821;52.202;0.154;2023-05-19T06:36:07;13.73;;;5.32;;
70406;SDS011;57821;52.202;0.154;2023-05-19T06:38:56;11.60;;;4.97;;
70406;SDS011;57821;52.202;0.154;2023-05-19T06:41:45;17.83;;;5.97;;
70406;SDS011;57821;52.202;0.154;2023-05-19T06:44:46;20.00;;;5.60;;
70406;SDS011;57821;52.202;0.154;2023-05-19T06:47:34;21.17;;;5.18;;
70406;SDS011;57821;52.202;0.154;2023-05-19T06:50:21;18.77;;;4.97;;
70406;SDS011;57821;52.202;0.154;2023-05-19T06:53:08;10.50;;;4.70;;
70406;SDS011;57821;52.202;0.154;2023-05-19T06:55:57;17.33;;;5.63;;
70406;SDS011;57821;52.202;0.154;2023-05-19T06:58:47;21.85;;;5.78;;
70406;SDS011;57821;52.202;0.154;2023-05-19T07:01:34;26.00;;;6.85;;
70406;SDS011;57821;52.202;0.154;2023-05-19T07:04:22;15.40;;;6.70;;
70406;SDS011;57821;52.202;0.154;2023-05-19T07:07:09;14.88;;;6.35;;
70406;SDS011;57821;52.202;0.154;2023-05-19T07:09:56;20.10;;;7.20;;
70406;SDS011;57821;52.202;0.154;2023-05-19T07:12:44;15.95;;;6.97;;
70406;SDS011;57821;52.202;0.154;2023-05-19T07:15:32;18.17;;;7.43;;
70406;SDS011;57821;52.202;0.154;2023-05-19T07:18:20;16.33;;;7.03;;
70406;SDS011;57821;52.202;0.154;2023-05-19T07:21:07;14.20;;;7.55;;
70406;SDS011;57821;52.202;0.154;2023-05-19T07:23:56;17.75;;;7.45;;
70406;SDS011;57821;52.202;0.154;2023-05-19T07:26:43;21.85;;;8.00;;
70406;SDS011;57821;52.202;0.154;2023-05-19T07:29:29;14.85;;;7.75;;
70406;SDS011;57821;52.202;0.154;2023-05-19T07:32:16;19.77;;;7.55;;
70406;SDS011;57821;52.202;0.154;2023-05-19T07:35:04;19.42;;;9.00;;
70406;SDS011;57821;52.202;0.154;2023-05-19T07:37:51;19.88;;;8.27;;
70406;SDS011;57821;52.202;0.154;2023-05-19T07:40:38;16.75;;;8.90;;
70406;SDS011;57821;52.202;0.154;2023-05-19T07:43:25;16.48;;;8.52;;
70406;SDS011;57821;52.202;0.154;2023-05-19T07:46:12;17.60;;;9.07;;
70406;SDS011;57821;52.202;0.154;2023-05-19T07:48:59;22.60;;;10.30;;
70406;SDS011;57821;52.202;0.154;2023-05-19T07:51:46;20.13;;;8.43;;
70406;SDS011;57821;52.202;0.154;2023-05-19T07:54:33;19.75;;;8.98;;
70406;SDS011;57821;52.202;0.154;2023-05-19T07:57:20;17.85;;;9.23;;
70406;SDS011;57821;52.202;0.154;2023-05-19T08:00:07;18.55;;;8.70;;
70406;SDS011;57821;52.202;0.154;2023-05-19T08:02:57;16.55;;;8.20;;
70406;SDS011;57821;52.202;0.154;2023-05-19T08:05:45;15.65;;;8.65;;
70406;SDS011;57821;52.202;0.154;2023-05-19T08:08:32;19.63;;;7.85;;
70406;SDS011;57821;52.202;0.154;2023-05-19T08:11:20;18.38;;;8.95;;
70406;SDS011;57821;52.202;0.154;2023-05-19T08:14:07;23.85;;;9.07;;
70406;SDS011;57821;52.202;0.154;2023-05-19T08:16:54;21.45;;;9.55;;
70406;SDS011;57821;52.202;0.154;2023-05-19T08:19:41;17.15;;;8.45;;
70406;SDS011;57821;52.202;0.154;2023-05-19T08:22:28;18.85;;;8.85;;
70406;SDS011;57821;52.202;0.154;2023-05-19T08:25:14;20.02;;;8.38;;
70406;SDS011;57821;52.202;0.154;2023-05-19T08:28:01;18.00;;;8.90;;
70406;SDS011;57821;52.202;0.154;2023-05-19T08:30:49;19.65;;;8.30;;
70406;SDS011;57821;52.202;0.154;2023-05-19T08:33:36;21.13;;;9.98;;
70406;SDS011;57821;52.202;0.154;2023-05-19T08:36:23;22.00;;;9.32;;
70406;SDS011;57821;52.202;0.154;2023-05-19T08:39:10;22.85;;;8.98;;
70406;SDS011;57821;52.202;0.154;2023-05-19T08:41:57;18.77;;;9.55;;
70406;SDS011;57821;52.202;0.154;2023-05-19T08:44:44;18.02;;;8.55;;
70406;SDS011;57821;52.202;0.154;2023-05-19T08:47:31;18.80;;;9.10;;
70406;SDS011;57821;52.202;0.154;2023-05-19T08:50:23;16.30;;;7.72;;
70406;SDS011;57821;52.202;0.154;2023-05-19T08:53:15;16.88;;;8.35;;
70406;SDS011;57821;52.202;0.154;2023-05-19T08:56:22;17.35;;;7.93;;
70406;SDS011;57821;52.202;0.154;2023-05-19T08:59:10;23.20;;;8.45;;
70406;SDS011;57821;52.202;0.154;2023-05-19T09:01:58;17.85;;;8.20;;
70406;SDS011;57821;52.202;0.154;2023-05-19T09:04:45;20.90;;;9.23;;
70406;SDS011;57821;52.202;0.154;2023-05-19T09:07:33;21.10;;;8.45;;
70406;SDS011;57821;52.202;0.154;2023-05-19T09:10:21;17.90;;;6.53;;
70406;SDS011;57821;52.202;0.154;2023-05-19T09:13:08;18.60;;;7.38;;
70406;SDS011;57821;52.202;0.154;2023-05-19T09:15:56;21.45;;;7.38;;
70406;SDS011;57821;52.202;0.154;2023-05-19T09:18:53;19.55;;;7.22;;
70406;SDS011;57821;52.202;0.154;2023-05-19T09:21:41;17.17;;;9.55;;
70406;SDS011;57821;52.202;0.154;2023-05-19T09:24:30;15.85;;;7.60;;
70406;SDS011;57821;52.202;0.154;2023-05-19T09:27:20;16.52;;;7.78;;
70406;SDS011;57821;52.202;0.154;2023-05-19T09:30:07;27.33;;;8.65;;
70406;SDS011;57821;52.202;0.154;2023-05-19T09:32:55;16.05;;;7.45;;
70406;SDS011;57821;52.202;0.154;2023-05-19T09:35:45;15.88;;;8.05;;
70406;SDS011;57821;52.202;0.154;2023-05-19T09:38:33;15.88;;;8.02;;
70406;SDS011;57821;52.202;0.154;2023-05-19T09:41:21;13.60;;;7.03;;
70406;SDS011;57821;52.202;0.154;2023-05-19T09:44:20;18.92;;;8.20;;
70406;SDS011;57821;52.202;0.154;2023-05-19T09:47:13;14.13;;;6.15;;
70406;SDS011;57821;52.202;0.154;2023-05-19T09:50:00;14.90;;;7.15;;
70406;SDS011;57821;52.202;0.154;2023-05-19T09:52:47;14.27;;;5.93;;
70406;SDS011;57821;52.202;0.154;2023-05-19T09:55:34;14.32;;;6.13;;
70406;SDS011;57821;52.202;0.154;2023-05-19T09:58:21;18.10;;;7.15;;
70406;SDS011;57821;52.202;0.154;2023-05-19T10:01:08;16.15;;;6.75;;
70406;SDS011;57821;52.202;0.154;2023-05-19T10:03:55;15.52;;;6.90;;
70406;SDS011;57821;52.202;0.154;2023-05-19T10:06:42;18.55;;;6.75;;
70406;SDS011;57821;52.202;0.154;2023-05-19T10:09:29;18.55;;;7.22;;
70406;SDS011;57821;52.202;0.154;2023-05-19T10:12:17;13.23;;;6.40;;
70406;SDS011;57821;52.202;0.154;2023-05-19T10:15:08;14.38;;;7.20;;
70406;SDS011;57821;52.202;0.154;2023-05-19T10:17:56;15.27;;;7.72;;
70406;SDS011;57821;52.202;0.154;2023-05-19T10:20:45;16.80;;;6.75;;
70406;SDS011;57821;52.202;0.154;2023-05-19T10:23:34;15.82;;;7.20;;
70406;SDS011;57821;52.202;0.154;2023-05-19T10:26:21;12.13;;;5.43;;
70406;SDS011;57821;52.202;0.154;2023-05-19T10:29:10;12.80;;;5.75;;
70406;SDS011;57821;52.202;0.154;2023-05-19T10:32:01;10.45;;;4.70;;
70406;SDS011;57821;52.202;0.154;2023-05-19T10:41:12;12.85;;;5.35;;
70406;SDS011;57821;52.202;0.154;2023-05-19T10:44:23;11.40;;;4.25;;
70406;SDS011;57821;52.202;0.154;2023-05-19T10:47:23;10.43;;;4.45;;
70406;SDS011;57821;52.202;0.154;2023-05-19T10:50:11;10.65;;;4.25;;
70406;SDS011;57821;52.202;0.154;2023-05-19T10:52:59;9.32;;;3.95;;
70406;SDS011;57821;52.202;0.154;2023-05-19T10:55:51;9.52;;;4.13;;
70406;SDS011;57821;52.202;0.154;2023-05-19T11:01:33;10.73;;;4.40;;
70406;SDS011;57821;52.202;0.154;2023-05-19T11:04:21;9.93;;;4.25;;
70406;SDS011;57821;52.202;0.154;2023-05-19T11:07:25;9.73;;;4.35;;
70406;SDS011;57821;52.202;0.154;2023-05-19T11:10:11;8.05;;;3.90;;
70406;SDS011;57821;52.202;0.154;2023-05-19T11:12:59;11.00;;;4.28;;
70406;SDS011;57821;52.202;0.154;2023-05-19T11:15:46;9.45;;;4.28;;
70406;SDS011;57821;52.202;0.154;2023-05-19T11:18:32;15.02;;;4.78;;
70406;SDS011;57821;52.202;0.154;2023-05-19T11:21:20;10.98;;;4.28;;
70406;SDS011;57821;52.202;0.154;2023-05-19T11:24:07;12.82;;;4.43;;
70406;SDS011;57821;52.202;0.154;2023-05-19T11:26:55;10.50;;;4.15;;
70406;SDS011;57821;52.202;0.154;2023-05-19T11:29:42;8.75;;;4.28;;
70406;SDS011;57821;52.202;0.154;2023-05-19T11:32:30;11.18;;;5.68;;
70406;SDS011;57821;52.202;0.154;2023-05-19T11:35:21;13.05;;;4.68;;
70406;SDS011;57821;52.202;0.154;2023-05-19T11:38:08;11.38;;;4.82;;
70406;SDS011;57821;52.202;0.154;2023-05-19T11:40:56;9.10;;;4.18;;
70406;SDS011;57821;52.202;0.154;2023-05-19T11:43:43;10.65;;;5.28;;
70406;SDS011;57821;52.202;0.154;2023-05-19T11:46:33;12.57;;;4.60;;
70406;SDS011;57821;52.202;0.154;2023-05-19T11:49:20;12.07;;;5.40;;
70406;SDS011;57821;52.202;0.154;2023-05-19T11:52:07;12.23;;;4.75;;
70406;SDS011;57821;52.202;0.154;2023-05-19T11:54:54;11.85;;;5.95;;
70406;SDS011;57821;52.202;0.154;2023-05-19T11:57:40;11.50;;;5.97;;
70406;SDS011;57821;52.202;0.154;2023-05-19T12:00:38;13.10;;;5.88;;
70406;SDS011;57821;52.202;0.154;2023-05-19T12:03:26;11.73;;;5.65;;
70406;SDS011;57821;52.202;0.154;2023-05-19T12:06:14;13.52;;;5.95;;
70406;SDS011;57821;52.202;0.154;2023-05-19T12:09:01;12.95;;;6.22;;
70406;SDS011;57821;52.202;0.154;2023-05-19T12:11:50;10.30;;;5.75;;
70406;SDS011;57821;52.202;0.154;2023-05-19T12:14:37;14.75;;;7.00;;
70406;SDS011;57821;52.202;0.154;2023-05-19T12:17:24;18.48;;;6.47;;
70406;SDS011;57821;52.202;0.154;2023-05-19T12:20:11;12.85;;;6.45;;
70406;SDS011;57821;52.202;0.154;2023-05-19T12:22:59;13.10;;;6.47;;
70406;SDS011;57821;52.202;0.154;2023-05-19T12:25:46;15.60;;;6.70;;
70406;SDS011;57821;52.202;0.154;2023-05-19T12:28:33;17.45;;;6.50;;
70406;SDS011;57821;52.202;0.154;2023-05-19T12:31:20;16.52;;;7.43;;
70406;SDS011;57821;52.202;0.154;2023-05-19T12:34:07;16.30;;;6.32;;
70406;SDS011;57821;52.202;0.154;2023-05-19T12:36:54;14.82;;;6.63;;
70406;SDS011;57821;52.202;0.154;2023-05-19T12:39:41;12.10;;;6.45;;
70406;SDS011;57821;52.202;0.154;2023-05-19T12:42:29;17.05;;;6.93;;
70406;SDS011;57821;52.202;0.154;2023-05-19T12:45:18;15.38;;;6.75;;
70406;SDS011;57821;52.202;0.154;2023-05-19T12:48:10;14.88;;;7.75;;
70406;SDS011;57821;52.202;0.154;2023-05-19T12:50:57;14.68;;;7.00;;
70406;SDS011;57821;52.202;0.154;2023-05-19T12:53:44;17.98;;;7.78;;
70406;SDS011;57821;52.202;0.154;2023-05-19T12:56:32;18.13;;;7.28;;
70406;SDS011;57821;52.202;0.154;2023-05-19T12:59:22;16.80;;;8.05;;
70406;SDS011;57821;52.202;0.154;2023-05-19T13:02:24;21.70;;;8.18;;
70406;SDS011;57821;52.202;0.154;2023-05-19T13:05:11;17.65;;;7.93;;
70406;SDS011;57821;52.202;0.154;2023-05-19T13:10:54;15.57;;;7.28;;
70406;SDS011;57821;52.202;0.154;2023-05-19T13:13:41;15.13;;;7.85;;
70406;SDS011;57821;52.202;0.154;2023-05-19T13:16:28;13.82;;;6.47;;
70406;SDS011;57821;52.202;0.154;2023-05-19T13:19:16;17.45;;;7.25;;
70406;SDS011;57821;52.202;0.154;2023-05-19T13:22:11;15.48;;;7.78;;
70406;SDS011;57821;52.202;0.154;2023-05-19T13:24:58;15.80;;;6.90;;
70406;SDS011;57821;52.202;0.154;2023-05-19T13:27:45;15.23;;;7.00;;
70406;SDS011;57821;52.202;0.154;2023-05-19T13:30:33;12.88;;;6.95;;
70406;SDS011;57821;52.202;0.154;2023-05-19T13:33:22;16.10;;;8.27;;
70406;SDS011;57821;52.202;0.154;2023-05-19T13:36:09;12.98;;;7.20;;
70406;SDS011;57821;52.202;0.154;2023-05-19T13:38:56;18.05;;;8.00;;
70406;SDS011;57821;52.202;0.154;2023-05-19T13:41:43;14.05;;;6.53;;
70406;SDS011;57821;52.202;0.154;2023-05-19T13:44:30;15.60;;;7.28;;
70406;SDS011;57821;52.202;0.154;2023-05-19T13:47:17;14.52;;;7.30;;
70406;SDS011;57821;52.202;0.154;2023-05-19T13:50:04;16.48;;;7.95;;
70406;SDS011;57821;52.202;0.154;2023-05-19T13:52:51;17.88;;;8.00;;
70406;SDS011;57821;52.202;0.154;2023-05-19T13:55:38;16.25;;;7.90;;
70406;SDS011;57821;52.202;0.154;2023-05-19T13:58:25;15.30;;;7.47;;
70406;SDS011;57821;52.202;0.154;2023-05-19T14:01:12;15.63;;;8.35;;
70406;SDS011;57821;52.202;0.154;2023-05-19T14:03:59;17.92;;;8.15;;
70406;SDS011;57821;52.202;0.154;2023-05-19T14:06:47;24.58;;;9.57;;
70406;SDS011;57821;52.202;0.154;2023-05-19T14:09:33;21.60;;;8.30;;
70406;SDS011;57821;52.202;0.154;2023-05-19T14:12:20;14.15;;;7.38;;
70406;SDS011;57821;52.202;0.154;2023-05-19T14:15:16;14.80;;;7.00;;
70406;SDS011;57821;52.202;0.154;2023-05-19T14:18:03;15.05;;;6.68;;
70406;SDS011;57821;52.202;0.154;2023-05-19T14:20:52;12.20;;;6.43;;
70406;SDS011;57821;52.202;0.154;2023-05-19T14:23:39;11.82;;;6.65;;
70406;SDS011;57821;52.202;0.154;2023-05-19T14:26:26;12.27;;;6.55;;
70406;SDS011;57821;52.202;0.154;2023-05-19T14:29:15;13.35;;;6.47;;
70406;SDS011;57821;52.202;0.154;2023-05-19T14:32:02;13.85;;;7.03;;
70406;SDS011;57821;52.202;0.154;2023-05-19T14:34:49;14.20;;;6.93;;
70406;SDS011;57821;52.202;0.154;2023-05-19T14:37:36;13.13;;;6.53;;
70406;SDS011;57821;52.202;0.154;2023-05-19T14:40:23;14.00;;;7.47;;
70406;SDS011;57821;52.202;0.154;2023-05-19T14:43:10;16.17;;;7.45;;
70406;SDS011;57821;52.202;0.154;2023-05-19T14:45:57;12.93;;;6.50;;
70406;SDS011;57821;52.202;0.154;2023-05-19T14:48:43;14.15;;;6.90;;
70406;SDS011;57821;52.202;0.154;2023-05-19T14:51:30;12.45;;;6.10;;
70406;SDS011;57821;52.202;0.154;2023-05-19T14:54:17;16.40;;;6.57;;
70406;SDS011;57821;52.202;0.154;2023-05-19T14:57:04;14.35;;;6.30;;
70406;SDS011;57821;52.202;0.154;2023-05-19T14:59:51;13.23;;;6.25;;
70406;SDS011;57821;52.202;0.154;2023-05-19T15:02:38;14.23;;;7.47;;
70406;SDS011;57821;52.202;0.154;2023-05-19T15:05:25;16.60;;;8.23;;
70406;SDS011;57821;52.202;0.154;2023-05-19T15:08:12;14.20;;;7.43;;
70406;SDS011;57821;52.202;0.154;2023-05-19T15:10:59;15.63;;;7.57;;
70406;SDS011;57821;52.202;0.154;2023-05-19T15:13:46;12.82;;;7.75;;
70406;SDS011;57821;52.202;0.154;2023-05-19T15:16:33;13.13;;;7.30;;
70406;SDS011;57821;52.202;0.154;2023-05-19T15:19:19;12.65;;;7.88;;
70406;SDS011;57821;52.202;0.154;2023-05-19T15:22:07;13.77;;;7.68;;
70406;SDS011;57821;52.202;0.154;2023-05-19T15:24:54;15.80;;;7.47;;
70406;SDS011;57821;52.202;0.154;2023-05-19T15:27:41;12.55;;;7.88;;
70406;SDS011;57821;52.202;0.154;2023-05-19T15:30:28;15.93;;;7.35;;
70406;SDS011;57821;52.202;0.154;2023-05-19T15:33:15;14.23;;;7.63;;
70406;SDS011;57821;52.202;0.154;2023-05-19T15:36:02;15.68;;;7.13;;
70406;SDS011;57821;52.202;0.154;2023-05-19T15:38:49;14.20;;;6.97;;
70406;SDS011;57821;52.202;0.154;2023-05-19T15:41:35;12.40;;;6.88;;
70406;SDS011;57821;52.202;0.154;2023-05-19T15:44:22;13.50;;;7.60;;
70406;SDS011;57821;52.202;0.154;2023-05-19T15:47:09;11.48;;;6.93;;
70406;SDS011;57821;52.202;0.154;2023-05-19T15:49:56;12.90;;;7.00;;
70406;SDS011;57821;52.202;0.154;2023-05-19T15:52:43;16.52;;;6.95;;
70406;SDS011;57821;52.202;0.154;2023-05-19T15:55:30;12.63;;;6.40;;
70406;SDS011;57821;52.202;0.154;2023-05-19T15:58:17;13.13;;;6.07;;
70406;SDS011;57821;52.202;0.154;2023-05-19T16:01:04;15.05;;;7.15;;
70406;SDS011;57821;52.202;0.154;2023-05-19T16:03:51;15.10;;;7.05;;
70406;SDS011;57821;52.202;0.154;2023-05-19T16:06:38;13.70;;;7.07;;
70406;SDS011;57821;52.202;0.154;2023-05-19T16:09:25;14.43;;;7.28;;
70406;SDS011;57821;52.202;0.154;2023-05-19T16:12:12;15.93;;;7.82;;
70406;SDS011;57821;52.202;0.154;2023-05-19T16:14:59;16.52;;;8.43;;
70406;SDS011;57821;52.202;0.154;2023-05-19T16:17:46;12.82;;;6.95;;
70406;SDS011;57821;52.202;0.154;2023-05-19T16:20:33;15.93;;;8.40;;
70406;SDS011;57821;52.202;0.154;2023-05-19T16:23:20;12.55;;;7.15;;
70406;SDS011;57821;52.202;0.154;2023-05-19T16:26:07;16.40;;;7.43;;
70406;SDS011;57821;52.202;0.154;2023-05-19T16:28:54;14.80;;;7.53;;
70406;SDS011;57821;52.202;0.154;2023-05-19T16:31:41;13.32;;;7.22;;
70406;SDS011;57821;52.202;0.154;2023-05-19T16:34:28;13.52;;;7.57;;
70406;SDS011;57821;52.202;0.154;2023-05-19T16:37:16;16.55;;;8.00;;
70406;SDS011;57821;52.202;0.154;2023-05-19T16:40:03;14.15;;;7.63;;
70406;SDS011;57821;52.202;0.154;2023-05-19T16:42:53;15.35;;;7.72;;
70406;SDS011;57821;52.202;0.154;2023-05-19T16:45:40;14.38;;;7.80;;
70406;SDS011;57821;52.202;0.154;2023-05-19T16:48:27;16.48;;;7.30;;
70406;SDS011;57821;52.202;0.154;2023-05-19T16:51:14;13.63;;;7.90;;
70406;SDS011;57821;52.202;0.154;2023-05-19T16:54:00;12.32;;;8.02;;
70406;SDS011;57821;52.202;0.154;2023-05-19T16:56:48;16.27;;;7.90;;
70406;SDS011;57821;52.202;0.154;2023-05-19T16:59:36;11.48;;;7.30;;
70406;SDS011;57821;52.202;0.154;2023-05-19T17:02:23;11.70;;;7.47;;
70406;SDS011;57821;52.202;0.154;2023-05-19T17:05:10;12.75;;;7.28;;
70406;SDS011;57821;52.202;0.154;2023-05-19T17:07:56;12.77;;;9.38;;
70406;SDS011;57821;52.202;0.154;2023-05-19T17:10:43;15.65;;;8.40;;